Time;durP1;ratioP1;P1;durP2;ratioP2;P2;SDS_P1;SDS_P2;PMS_P1;PMS_P2;Temp;Humidity;BMP_temperature;BMP_pressure;BME280_temperature;BME280_humidity;BME280_pressure;Samples;Min_cycle;Max_cycle;Signal;HPM_P1;HPM_P2
2022/12/18 00:01:31;;;;;;;52.50;27.90;;;;;;;-5.09;98.82;102806.59;5052299;28;20052;-49
2022/12/18 00:03:57;;;;;;;51.97;27.23;;;;;;;-5.12;99.60;102803.94;5051843;28;20051;-50
2022/12/18 00:06:25;;;;;;;52.70;27.27;;;;;;;-5.14;98.96;102800.47;5052753;28;20025;-52
2022/12/18 00:08:50;;;;;;;55.95;28.45;;;;;;;-5.15;99.02;102800.44;5053102;28;20025;-49
2022/12/18 00:11:20;;;;;;;49.83;27.90;;;;;;;-5.19;99.03;102803.81;5047666;28;20079;-49
2022/12/18 00:13:46;;;;;;;51.55;27.35;;;;;;;-5.21;98.42;102802.06;5008356;28;1043812;-50
2022/12/18 00:16:14;;;;;;;55.35;28.73;;;;;;;-5.23;98.92;102808.94;5053771;28;20065;-51
2022/12/18 00:18:40;;;;;;;52.30;27.55;;;;;;;-5.24;99.07;102803.72;5053099;28;20422;-52
2022/12/18 00:21:08;;;;;;;52.40;27.58;;;;;;;-5.27;98.67;102804.50;5053477;28;20036;-49
2022/12/18 00:23:35;;;;;;;54.70;27.70;;;;;;;-5.31;98.12;102789.75;5054074;28;20163;-50
2022/12/18 00:26:02;;;;;;;47.72;26.70;;;;;;;-5.35;98.08;102780.16;5052495;28;20023;-48
2022/12/18 00:28:28;;;;;;;52.60;26.42;;;;;;;-5.38;97.51;102774.91;5053897;28;20239;-49
2022/12/18 00:31:07;;;;;;;54.28;27.35;;;;;;;-5.42;98.22;102766.22;5052860;28;20083;-49
2022/12/18 00:33:34;;;;;;;50.53;27.30;;;;;;;-5.47;97.62;102765.25;5048295;28;20475;-48
2022/12/18 00:36:05;;;;;;;49.10;26.90;;;;;;;-5.51;98.16;102763.47;5055271;28;20021;-49
2022/12/18 00:38:30;;;;;;;51.15;26.73;;;;;;;-5.57;98.33;102764.19;5056585;28;20036;-51
2022/12/18 00:40:55;;;;;;;57.75;28.10;;;;;;;-5.63;98.69;102761.50;5055025;28;20025;-49
2022/12/18 00:43:21;;;;;;;47.10;25.73;;;;;;;-5.67;99.04;102756.19;5052737;28;20029;-49
2022/12/18 00:45:46;;;;;;;49.90;26.55;;;;;;;-5.74;99.03;102754.31;5053314;28;20027;-50
2022/12/18 00:48:11;;;;;;;49.58;26.65;;;;;;;-5.78;99.64;102766.31;5053186;28;20025;-50
2022/12/18 00:50:38;;;;;;;48.85;26.35;;;;;;;-5.79;99.49;102768.03;5052260;28;20027;-49
2022/12/18 00:53:03;;;;;;;48.20;25.95;;;;;;;-5.82;99.93;102765.38;5052799;28;20037;-49
2022/12/18 00:55:28;;;;;;;52.55;26.33;;;;;;;-5.82;99.50;102748.97;5053419;28;20391;-49
2022/12/18 00:57:53;;;;;;;49.80;26.50;;;;;;;-5.83;99.42;102749.81;5052236;28;20021;-49
2022/12/18 01:00:19;;;;;;;48.92;25.27;;;;;;;-5.84;99.34;102755.84;5053139;28;20032;-49
2022/12/18 01:02:44;;;;;;;49.72;25.80;;;;;;;-5.83;99.85;102763.63;5051956;28;20108;-49
2022/12/18 01:05:11;;;;;;;42.75;25.52;;;;;;;-5.86;99.82;102771.34;5053221;28;20525;-48
2022/12/18 01:07:37;;;;;;;47.83;26.58;;;;;;;-5.87;99.89;102768.72;5051627;28;20029;-49
2022/12/18 01:10:05;;;;;;;47.60;25.50;;;;;;;-5.90;99.99;102759.16;5045030;28;20044;-48
2022/12/18 01:12:30;;;;;;;48.72;24.75;;;;;;;-5.90;99.81;102779.84;5035038;28;20025;-49
2022/12/18 01:14:56;;;;;;;46.50;24.60;;;;;;;-5.91;99.25;102782.41;5051778;28;20071;-48
2022/12/18 01:17:21;;;;;;;44.80;24.65;;;;;;;-5.95;100.00;102777.16;5052421;28;20108;-49
2022/12/18 01:19:47;;;;;;;45.85;25.00;;;;;;;-5.98;99.09;102784.91;5052658;28;20399;-49
2022/12/18 01:22:12;;;;;;;46.50;24.55;;;;;;;-5.99;98.92;102779.69;5044793;28;20037;-49
2022/12/18 01:24:37;;;;;;;44.55;23.23;;;;;;;-6.00;99.01;102788.28;5052425;28;20109;-49
2022/12/18 01:27:03;;;;;;;45.42;25.17;;;;;;;-6.00;99.31;102788.28;5052090;28;20029;-51
2022/12/18 01:29:28;;;;;;;50.03;26.02;;;;;;;-6.02;99.06;102783.06;5051722;28;20516;-49
2022/12/18 01:31:55;;;;;;;49.85;25.13;;;;;;;-6.02;99.23;102785.66;5052630;28;20554;-48
2022/12/18 01:34:21;;;;;;;44.05;23.45;;;;;;;-6.04;99.41;102783.88;5051921;28;20071;-48
2022/12/18 01:36:46;;;;;;;44.97;24.48;;;;;;;-6.06;98.95;102775.19;5051981;28;20482;-50
2022/12/18 01:39:13;;;;;;;43.90;23.55;;;;;;;-6.06;99.23;102777.78;5051590;28;20548;-49
2022/12/18 01:44:51;;;;;;;43.13;24.48;;;;;;;-6.09;99.08;102768.25;5052545;28;20039;-52
2022/12/18 01:47:30;;;;;;;46.00;24.95;;;;;;;-6.09;99.38;102778.59;5049881;28;20051;-48
2022/12/18 01:49:57;;;;;;;45.58;23.55;;;;;;;-6.10;99.01;102773.38;5052063;28;20375;-49
2022/12/18 01:52:26;;;;;;;43.75;24.33;;;;;;;-6.14;99.39;102768.13;5052246;28;20040;-48
2022/12/18 01:54:52;;;;;;;45.30;24.27;;;;;;;-6.11;99.44;102774.22;5050960;28;20053;-51
2022/12/18 01:57:17;;;;;;;41.88;23.15;;;;;;;-6.14;99.44;102773.31;5052516;28;20029;-48
2022/12/18 01:59:47;;;;;;;40.22;22.92;;;;;;;-6.14;99.47;102772.44;5051348;28;20503;-48
2022/12/18 02:02:13;;;;;;;41.83;23.45;;;;;;;-6.14;99.47;102770.72;5052096;28;20025;-49
2022/12/18 02:04:38;;;;;;;44.03;24.20;;;;;;;-6.12;99.75;102768.16;5050771;28;20029;-50
2022/12/18 02:07:30;;;;;;;39.72;22.23;;;;;;;-6.12;99.91;102762.13;5052134;28;20078;-49
2022/12/18 02:10:02;;;;;;;45.00;24.15;;;;;;;-6.14;99.30;102757.78;5051059;28;20508;-49
2022/12/18 02:12:49;;;;;;;39.80;21.38;;;;;;;-6.14;99.68;102755.19;5038484;28;20030;-50
2022/12/18 02:15:47;;;;;;;41.80;22.65;;;;;;;-6.14;99.91;102756.91;5051983;28;20045;-51
2022/12/18 02:18:21;;;;;;;41.78;23.42;;;;;;;-6.14;99.58;102762.97;5045828;28;20025;-49
2022/12/18 02:21:21;;;;;;;38.38;22.88;;;;;;;-6.15;99.46;102755.16;5051944;28;20033;-49
2022/12/18 02:24:17;;;;;;;36.60;19.92;;;;;;;-6.15;98.88;102762.91;5051746;28;20045;-52
2022/12/18 02:26:53;;;;;;;37.92;20.55;;;;;;;-6.18;99.16;102761.16;5051542;28;20029;-49
2022/12/18 02:29:23;;;;;;;44.95;23.17;;;;;;;-6.21;99.22;102758.50;5051641;28;20070;-49
2022/12/18 02:31:54;;;;;;;39.25;21.35;;;;;;;-6.24;99.18;102763.59;5052238;28;20044;-50
2022/12/18 02:34:23;;;;;;;43.20;21.58;;;;;;;-6.26;98.84;102760.09;5051876;28;20033;-49
2022/12/18 02:36:51;;;;;;;43.08;22.20;;;;;;;-6.27;98.90;102758.34;5051169;28;20029;-49
2022/12/18 02:39:20;;;;;;;40.28;22.58;;;;;;;-6.28;98.93;102751.41;5050858;28;20025;-48
2022/12/18 02:41:47;;;;;;;35.40;19.40;;;;;;;-6.29;99.07;102752.25;5051867;28;20033;-49
2022/12/18 02:44:13;;;;;;;37.92;21.23;;;;;;;-6.29;98.79;102747.09;5049634;28;20036;-48
2022/12/18 02:46:52;;;;;;;41.80;21.90;;;;;;;-6.32;98.85;102736.66;5052120;28;20036;-50
2022/12/18 02:49:27;;;;;;;45.03;22.10;;;;;;;-6.34;98.82;102738.34;5037536;28;20032;-48
2022/12/18 02:52:00;;;;;;;40.88;21.50;;;;;;;-6.37;98.82;102736.53;5046984;28;20026;-50
2022/12/18 02:55:01;;;;;;;35.10;19.58;;;;;;;-6.37;98.46;102735.69;5043845;28;20033;-51
2022/12/18 02:57:46;;;;;;;39.83;21.30;;;;;;;-6.39;98.53;102732.19;5042301;28;20136;-48
2022/12/18 03:00:20;;;;;;;31.45;18.95;;;;;;;-6.39;98.73;102733.06;5048728;28;20082;-49
2022/12/18 03:02:54;;;;;;;35.60;20.55;;;;;;;-6.39;99.20;102735.66;5041761;28;20032;-49
2022/12/18 03:05:30;;;;;;;39.42;22.20;;;;;;;-6.39;98.84;102732.19;5052354;28;20489;-49
2022/12/18 03:07:59;;;;;;;36.85;21.48;;;;;;;-6.40;98.88;102720.09;5055770;28;20025;-49
2022/12/18 03:10:30;;;;;;;39.00;21.77;;;;;;;-6.39;98.56;102719.25;5054716;28;20029;-50
2022/12/18 03:13:04;;;;;;;35.03;21.52;;;;;;;-6.40;97.58;102720.94;5055244;28;20041;-48
2022/12/18 03:15:35;;;;;;;38.60;22.27;;;;;;;-6.40;98.10;102710.63;5054956;28;20048;-49
2022/12/18 03:18:27;;;;;;;36.83;21.38;;;;;;;-6.40;98.00;102713.19;5046395;28;20479;-51
2022/12/18 03:20:55;;;;;;;39.40;23.50;;;;;;;-6.41;98.04;102720.91;5054108;28;20391;-49
2022/12/18 03:23:28;;;;;;;51.95;25.25;;;;;;;-6.41;98.08;102710.56;5055106;28;20024;-52
2022/12/18 03:26:02;;;;;;;41.55;22.67;;;;;;;-6.42;98.23;102712.28;5055040;28;20033;-50
2022/12/18 03:28:33;;;;;;;46.60;24.88;;;;;;;-6.43;97.74;102715.72;5054415;28;20203;-49
2022/12/18 03:31:01;;;;;;;44.78;22.58;;;;;;;-6.43;97.27;102714.84;5053685;28;20048;-48
2022/12/18 03:33:36;;;;;;;41.67;22.53;;;;;;;-6.46;97.37;102722.53;5054471;28;20490;-52
2022/12/18 03:36:02;;;;;;;39.00;21.90;;;;;;;-6.50;97.65;102721.56;5054589;28;20410;-51
2022/12/18 03:38:27;;;;;;;44.45;23.98;;;;;;;-6.51;97.91;102725.88;5054475;28;20071;-51
2022/12/18 03:41:03;;;;;;;44.83;23.27;;;;;;;-6.51;97.54;102723.28;5054820;28;20036;-49
2022/12/18 03:43:49;;;;;;;69.70;30.70;;;;;;;-6.51;97.68;102720.72;5054035;28;20053;-49
2022/12/18 03:46:26;;;;;;;74.05;30.63;;;;;;;-6.52;97.35;102718.94;5041285;28;20025;-48
2022/12/18 03:49:17;;;;;;;66.45;27.40;;;;;;;-6.52;97.34;102711.19;5054512;28;20025;-49
2022/12/18 03:51:50;;;;;;;32.90;17.77;;;;;;;-6.55;97.33;102711.13;5048871;28;20444;-49
2022/12/18 03:54:17;;;;;;;35.97;20.08;;;;;;;-6.55;98.08;102705.94;5047443;28;20048;-48
2022/12/18 03:56:48;;;;;;;38.72;19.55;;;;;;;-6.59;97.75;102698.09;5053558;28;20025;-48
2022/12/18 03:59:16;;;;;;;35.70;19.00;;;;;;;-6.60;97.10;102692.03;5054050;28;20025;-48
2022/12/18 04:01:48;;;;;;;32.88;19.65;;;;;;;-6.62;97.39;102691.13;5054076;28;20057;-48
2022/12/18 04:04:17;;;;;;;32.92;19.10;;;;;;;-6.64;97.54;102676.41;5054088;28;20079;-50
2022/12/18 04:06:44;;;;;;;35.95;20.02;;;;;;;-6.66;97.34;102673.81;5054824;28;20104;-48
2022/12/18 04:09:10;;;;;;;35.78;18.63;;;;;;;-6.68;97.59;102667.72;5052651;28;20112;-48
2022/12/18 04:11:35;;;;;;;34.13;18.75;;;;;;;-6.68;97.38;102672.88;5053643;28;20450;-48
2022/12/18 04:14:00;;;;;;;30.48;17.67;;;;;;;-6.68;97.31;102670.31;5053115;28;20049;-48
2022/12/18 04:16:26;;;;;;;35.45;18.65;;;;;;;-6.70;97.60;102665.09;5053457;28;20041;-48
2022/12/18 04:18:52;;;;;;;33.70;18.60;;;;;;;-6.71;97.51;102665.06;5053505;28;20082;-48
2022/12/18 04:21:18;;;;;;;38.83;19.90;;;;;;;-6.71;97.51;102654.72;5053663;28;20028;-50
2022/12/18 04:23:43;;;;;;;29.83;16.85;;;;;;;-6.72;97.80;102655.56;5053068;28;20546;-49
2022/12/18 04:26:08;;;;;;;35.92;17.42;;;;;;;-6.73;97.28;102653.81;5054031;28;20428;-48
2022/12/18 04:28:34;;;;;;;32.53;17.52;;;;;;;-6.73;97.82;102662.47;5053512;28;20509;-50
2022/12/18 04:30:59;;;;;;;31.08;17.33;;;;;;;-6.74;97.57;102671.03;5053012;28;20066;-50
2022/12/18 04:33:24;;;;;;;28.25;17.27;;;;;;;-6.73;97.28;102675.38;5053406;28;20070;-48
2022/12/18 04:35:49;;;;;;;35.60;17.85;;;;;;;-6.72;97.39;102682.28;5053881;28;20386;-48
2022/12/18 04:38:15;;;;;;;29.63;17.38;;;;;;;-6.72;96.94;102671.94;5053603;28;20477;-48
2022/12/18 04:40:41;;;;;;;35.00;20.35;;;;;;;-6.71;97.35;102677.97;5052986;28;20032;-48
2022/12/18 04:43:06;;;;;;;29.02;17.23;;;;;;;-6.70;97.60;102685.78;5053522;28;20067;-49
2022/12/18 04:45:32;;;;;;;27.55;16.83;;;;;;;-6.71;97.40;102684.03;5053528;28;20437;-48
2022/12/18 04:47:58;;;;;;;27.58;15.57;;;;;;;-6.71;97.17;102691.78;5052332;28;20033;-49
2022/12/18 04:50:24;;;;;;;30.65;17.77;;;;;;;-6.71;96.89;102704.72;5053488;28;20082;-51
2022/12/18 04:52:49;;;;;;;35.40;17.52;;;;;;;-6.71;96.69;102706.41;5042654;28;20079;-52
2022/12/18 04:55:14;;;;;;;29.30;16.83;;;;;;;-6.71;96.24;102704.72;5053792;28;20029;-48
2022/12/18 04:57:40;;;;;;;27.58;16.63;;;;;;;-6.70;97.04;102705.59;5052019;28;20044;-49
2022/12/18 05:00:06;;;;;;;27.83;17.08;;;;;;;-6.69;96.68;102707.34;5052805;28;20066;-49
2022/12/18 05:02:32;;;;;;;30.42;17.48;;;;;;;-6.69;96.88;102704.75;5053270;28;20035;-50
2022/12/18 05:04:57;;;;;;;35.35;18.40;;;;;;;-6.70;96.70;102703.84;5053532;28;20029;-49
2022/12/18 05:07:22;;;;;;;29.85;17.13;;;;;;;-6.69;96.96;102694.41;5052143;28;20406;-48
2022/12/18 05:09:47;;;;;;;29.25;16.10;;;;;;;-6.72;96.53;102702.09;5053361;28;20029;-48
2022/12/18 05:12:13;;;;;;;28.80;16.23;;;;;;;-6.74;96.67;102698.59;5051619;28;20040;-48
2022/12/18 05:14:38;;;;;;;28.98;16.70;;;;;;;-6.74;96.35;102717.56;5052509;28;20116;-48
2022/12/18 05:17:03;;;;;;;28.10;16.10;;;;;;;-6.75;96.61;102712.34;5052736;28;20404;-48
2022/12/18 05:19:29;;;;;;;27.73;15.80;;;;;;;-6.74;96.52;102706.34;5053513;28;20025;-48
2022/12/18 05:21:54;;;;;;;27.13;15.32;;;;;;;-6.72;96.53;102707.25;5052116;28;20021;-50
2022/12/18 05:24:19;;;;;;;24.48;15.05;;;;;;;-6.74;96.40;102696.03;5052922;28;20470;-48
2022/12/18 05:26:44;;;;;;;29.77;15.70;;;;;;;-6.73;96.38;102705.50;5051989;28;20024;-48
2022/12/18 05:29:12;;;;;;;26.38;15.88;;;;;;;-6.73;96.85;102710.66;5051475;28;20028;-48
2022/12/18 05:31:37;;;;;;;28.13;15.82;;;;;;;-6.74;96.49;102698.59;5052692;28;20475;-50
2022/12/18 05:34:03;;;;;;;26.45;14.73;;;;;;;-6.72;96.31;102702.09;5046004;28;20021;-48
2022/12/18 05:36:28;;;;;;;24.63;15.40;;;;;;;-6.73;96.65;102698.66;5046632;28;20041;-48
2022/12/18 05:38:53;;;;;;;30.20;15.90;;;;;;;-6.72;96.39;102692.63;5052995;28;20031;-48
2022/12/18 05:41:19;;;;;;;29.20;15.63;;;;;;;-6.71;95.74;102686.63;5051425;28;20086;-50
2022/12/18 05:43:44;;;;;;;27.45;15.73;;;;;;;-6.71;96.25;102680.56;5052055;28;20494;-48
2022/12/18 05:46:15;;;;;;;23.83;14.07;;;;;;;-6.71;96.58;102680.56;5052837;28;20078;-48
2022/12/18 05:48:41;;;;;;;23.95;14.35;;;;;;;-6.71;96.22;102683.16;5050435;28;20494;-49
2022/12/18 05:51:12;;;;;;;28.05;14.48;;;;;;;-6.72;96.18;102684.00;5051733;28;20028;-49
2022/12/18 05:53:38;;;;;;;28.27;15.82;;;;;;;-6.74;95.62;102685.69;5040503;28;20029;-48
2022/12/18 05:56:05;;;;;;;27.92;15.45;;;;;;;-6.75;95.63;102683.94;5052135;28;20094;-49
2022/12/18 05:58:31;;;;;;;27.15;15.80;;;;;;;-6.76;95.34;102679.56;5052383;28;20033;-51
2022/12/18 06:00:57;;;;;;;26.10;14.88;;;;;;;-6.79;95.68;102682.97;5046767;28;20033;-49
2022/12/18 06:03:23;;;;;;;24.60;13.82;;;;;;;-6.81;95.74;102678.59;5052350;28;20025;-48
2022/12/18 06:05:48;;;;;;;27.17;15.27;;;;;;;-6.85;95.49;102677.66;5050696;28;20028;-50
2022/12/18 06:08:14;;;;;;;25.73;14.90;;;;;;;-6.84;95.36;102674.25;5052300;28;20471;-49
2022/12/18 06:10:40;;;;;;;29.73;15.40;;;;;;;-6.85;96.03;102674.19;5051291;28;20033;-48
2022/12/18 06:13:06;;;;;;;28.23;14.85;;;;;;;-6.86;95.73;102680.19;5052166;28;20029;-49
2022/12/18 06:15:31;;;;;;;24.58;14.55;;;;;;;-6.89;95.35;102684.44;5051755;28;20402;-50
2022/12/18 06:17:56;;;;;;;27.52;15.85;;;;;;;-6.89;95.88;102688.75;5052208;28;20020;-52
2022/12/18 06:20:22;;;;;;;22.90;15.00;;;;;;;-6.91;96.15;102690.41;5051074;28;20021;-48
2022/12/18 06:22:47;;;;;;;26.02;14.25;;;;;;;-6.93;95.78;102686.91;5051596;28;20037;-49
2022/12/18 06:25:13;;;;;;;25.70;15.65;;;;;;;-6.95;96.00;102689.47;5051795;28;20414;-49
2022/12/18 06:27:38;;;;;;;27.73;15.20;;;;;;;-6.96;96.12;102687.72;5052169;28;20150;-48
2022/12/18 06:30:05;;;;;;;28.17;16.00;;;;;;;-6.96;96.12;102685.16;5050906;28;20483;-49
2022/12/18 06:32:31;;;;;;;24.13;14.57;;;;;;;-6.95;96.77;102689.47;5051890;28;20116;-48
2022/12/18 06:34:56;;;;;;;24.60;14.02;;;;;;;-6.94;96.91;102680.03;5051723;28;20826;-48
2022/12/18 06:37:25;;;;;;;25.20;14.30;;;;;;;-6.94;96.44;102685.19;5051572;28;20033;-49
2022/12/18 06:39:50;;;;;;;;;;;;;;;-6.88;96.02;102680.16;5052121;28;20040;-51
2022/12/18 06:42:16;;;;;;;29.33;14.97;;;;;;;-6.92;96.46;102674.03;5055741;28;20385;-49
2022/12/18 06:44:41;;;;;;;27.77;15.25;;;;;;;-6.92;96.36;102673.19;5054321;28;20397;-48
2022/12/18 06:47:06;;;;;;;25.58;15.02;;;;;;;-6.95;96.40;102673.97;5055883;28;20017;-50
2022/12/18 06:49:31;;;;;;;22.23;14.10;;;;;;;-6.97;96.29;102664.44;5053834;28;20056;-48
2022/12/18 06:51:57;;;;;;;26.90;14.98;;;;;;;-6.98;96.57;102666.13;5047686;28;20052;-49
2022/12/18 06:54:22;;;;;;;26.83;14.23;;;;;;;-6.99;96.44;102661.81;5049203;28;20030;-48
2022/12/18 06:56:47;;;;;;;25.20;14.70;;;;;;;-6.98;96.49;102668.72;5055012;28;20029;-50
2022/12/18 06:59:14;;;;;;;24.00;14.38;;;;;;;-7.02;96.67;102666.91;5055887;28;20542;-49
2022/12/18 07:01:39;;;;;;;26.00;14.88;;;;;;;-7.02;96.25;102669.47;5054704;28;20029;-49
2022/12/18 07:04:04;;;;;;;23.20;14.40;;;;;;;-7.03;97.06;102667.72;5055172;28;20035;-49
2022/12/18 07:06:30;;;;;;;25.08;15.15;;;;;;;-7.02;96.89;102661.72;5041054;28;20029;-50
2022/12/18 07:08:55;;;;;;;23.73;14.75;;;;;;;-7.01;96.71;102663.50;5036372;28;20560;-53
2022/12/18 07:11:21;;;;;;;26.42;15.85;;;;;;;-7.00;96.78;102656.59;5054742;28;20467;-49
2022/12/18 07:13:46;;;;;;;26.42;15.15;;;;;;;-7.01;96.82;102644.50;5054426;28;20045;-49
2022/12/18 07:16:17;;;;;;;25.67;14.82;;;;;;;-7.01;96.58;102640.25;5055509;28;20459;-48
2022/12/18 07:18:42;;;;;;;26.10;15.07;;;;;;;-7.01;96.75;102635.09;5041752;28;20033;-49
2022/12/18 07:21:10;;;;;;;28.02;15.80;;;;;;;-7.02;97.11;102629.88;5045479;28;20171;-50
2022/12/18 07:23:36;;;;;;;27.55;16.02;;;;;;;-7.02;96.89;102620.41;5042335;28;20018;-48
2022/12/18 07:26:08;;;;;;;26.35;14.23;;;;;;;-7.03;96.79;102603.16;5036294;28;20045;-50
2022/12/18 07:28:34;;;;;;;26.50;15.10;;;;;;;-7.03;97.07;102603.16;5044494;28;20029;-49
2022/12/18 07:31:06;;;;;;;28.17;15.70;;;;;;;-7.02;96.89;102602.31;5047047;28;20049;-48
2022/12/18 07:33:32;;;;;;;24.40;15.32;;;;;;;-7.02;97.32;102598.88;5052125;28;20088;-49
2022/12/18 07:36:03;;;;;;;26.73;14.63;;;;;;;-6.99;97.06;102597.25;5039477;28;20048;-49
2022/12/18 07:38:28;;;;;;;27.98;15.63;;;;;;;-6.97;97.44;102599.88;5053719;28;20021;-50
2022/12/18 07:40:54;;;;;;;32.42;17.02;;;;;;;-6.94;97.53;102595.63;5047077;28;20043;-48
2022/12/18 07:43:19;;;;;;;26.40;16.80;;;;;;;-6.94;97.54;102585.31;5049861;28;20064;-49
2022/12/18 07:45:44;;;;;;;27.60;15.90;;;;;;;-6.91;96.93;102587.97;5045156;28;20041;-49
2022/12/18 07:48:10;;;;;;;25.85;15.85;;;;;;;-6.89;97.00;102581.13;5046847;28;20033;-48
2022/12/18 07:50:35;;;;;;;29.92;15.88;;;;;;;-6.85;97.01;102561.41;5049225;28;20033;-49
2022/12/18 07:53:03;;;;;;;29.13;16.40;;;;;;;-6.82;97.22;102563.19;5047482;28;20080;-49
2022/12/18 07:55:29;;;;;;;25.17;15.80;;;;;;;-6.79;97.23;102565.84;5045525;28;20044;-50
2022/12/18 07:57:55;;;;;;;29.15;16.23;;;;;;;-6.77;97.02;102556.41;5047471;28;20525;-50
2022/12/18 08:00:20;;;;;;;25.40;14.82;;;;;;;-6.75;97.30;102555.59;5048827;28;20025;-50
2022/12/18 08:02:45;;;;;;;27.45;16.13;;;;;;;-6.73;96.71;102553.03;5048073;28;20060;-50
2022/12/18 08:05:11;;;;;;;27.63;16.40;;;;;;;-6.70;97.25;102572.06;5050204;28;20471;-49
2022/12/18 08:07:36;;;;;;;26.75;16.52;;;;;;;-6.66;97.31;102572.16;5046442;28;20048;-50
2022/12/18 08:10:02;;;;;;;24.08;15.65;;;;;;;-6.62;97.13;102579.16;5045450;28;20034;-51
2022/12/18 08:12:27;;;;;;;27.55;15.88;;;;;;;-6.59;96.83;102567.16;5048787;28;20128;-49
2022/12/18 08:14:52;;;;;;;28.55;16.65;;;;;;;-6.54;97.51;102565.53;5046604;28;20104;-50
2022/12/18 08:17:19;;;;;;;28.60;17.02;;;;;;;-6.51;97.38;102563.03;5046934;28;20055;-50
2022/12/18 08:19:44;;;;;;;29.25;16.15;;;;;;;-6.46;96.91;102570.00;5044273;28;20033;-49
2022/12/18 08:22:09;;;;;;;29.30;16.48;;;;;;;-6.42;97.37;102569.25;5051622;28;20056;-49
2022/12/18 08:24:35;;;;;;;27.05;15.95;;;;;;;-6.39;97.01;102577.06;5048349;28;20482;-50
2022/12/18 08:27:00;;;;;;;26.50;16.42;;;;;;;-6.35;96.99;102571.09;5051928;28;20044;-50
2022/12/18 08:29:25;;;;;;;27.35;16.73;;;;;;;-6.29;96.69;102565.19;5038034;28;20021;-49
2022/12/18 08:31:51;;;;;;;24.88;15.15;;;;;;;-6.27;96.56;102563.53;5036525;28;20498;-49
2022/12/18 08:34:16;;;;;;;27.15;15.65;;;;;;;-6.20;96.24;102571.41;5039274;28;20135;-51
2022/12/18 08:36:41;;;;;;;26.40;16.00;;;;;;;-6.17;96.20;102576.66;5049179;28;20059;-49
2022/12/18 08:39:07;;;;;;;26.98;15.63;;;;;;;-6.12;96.52;102575.91;5044767;28;20087;-49
2022/12/18 08:41:32;;;;;;;26.63;15.82;;;;;;;-6.07;96.37;102561.34;5041737;28;20067;-50
2022/12/18 08:46:44;;;;;;;25.80;15.38;;;;;;;-5.98;96.00;102556.34;5051316;28;20062;-49
2022/12/18 08:49:10;;;;;;;25.63;16.08;;;;;;;-5.98;95.47;102539.13;5049323;28;20029;-50
2022/12/18 08:51:36;;;;;;;28.08;15.68;;;;;;;-5.91;95.20;102544.34;5046994;28;20045;-49
2022/12/18 08:54:03;;;;;;;27.77;16.27;;;;;;;-5.88;95.35;102553.03;5045487;28;20045;-51
2022/12/18 08:56:29;;;;;;;26.27;16.15;;;;;;;-5.86;95.34;102553.06;5047774;28;20053;-50
2022/12/18 08:58:55;;;;;;;31.90;18.10;;;;;;;-5.81;95.63;102551.44;5049515;28;20036;-51
2022/12/18 09:01:21;;;;;;;42.67;24.65;;;;;;;-5.77;95.20;102548.09;5045778;28;20030;-50
2022/12/18 09:03:47;;;;;;;30.73;17.55;;;;;;;-5.74;94.81;102544.66;5035664;28;20018;-49
2022/12/18 09:06:17;;;;;;;32.17;18.92;;;;;;;-5.71;95.14;102539.53;5040810;28;20032;-50
2022/12/18 09:08:43;;;;;;;29.88;18.88;;;;;;;-5.65;94.85;102550.03;5048383;28;20386;-49
2022/12/18 09:11:22;;;;;;;29.13;17.50;;;;;;;-5.60;95.21;102561.31;5048182;28;20474;-51
2022/12/18 09:13:48;;;;;;;28.60;16.15;;;;;;;-5.53;95.24;102567.50;5044991;28;20406;-49
2022/12/18 09:16:13;;;;;;;26.42;15.98;;;;;;;-5.49;95.07;102582.25;5050604;28;20032;-49
2022/12/18 09:18:38;;;;;;;26.92;16.42;;;;;;;-5.45;94.52;102569.34;5050037;28;20112;-48
2022/12/18 09:21:11;;;;;;;32.10;17.77;;;;;;;-5.41;94.00;102565.13;5048174;28;20025;-49
2022/12/18 09:23:37;;;;;;;30.58;17.10;;;;;;;-5.38;93.91;102572.94;5046468;28;20033;-50
2022/12/18 09:26:02;;;;;;;26.55;16.35;;;;;;;-5.33;93.79;102565.25;5035101;28;20117;-49
2022/12/18 09:28:28;;;;;;;33.25;17.98;;;;;;;-5.29;94.38;102573.09;5045893;28;20132;-50
2022/12/18 09:30:53;;;;;;;29.85;17.13;;;;;;;-5.25;93.61;102555.88;5044088;28;20407;-50
2022/12/18 09:33:19;;;;;;;30.52;18.58;;;;;;;-5.23;93.86;102551.59;5049573;28;20544;-52
2022/12/18 09:35:45;;;;;;;27.63;17.02;;;;;;;-5.18;93.59;102538.72;5047103;28;20458;-50
2022/12/18 09:38:16;;;;;;;29.90;16.48;;;;;;;-5.15;93.38;102541.38;5045730;28;20334;-49
2022/12/18 09:40:45;;;;;;;27.17;16.63;;;;;;;-5.13;93.44;102535.38;5046409;28;20602;-54
2022/12/18 09:43:21;;;;;;;28.08;16.75;;;;;;;-5.07;93.05;102545.81;5045243;28;20490;-50
2022/12/18 09:45:54;;;;;;;29.95;16.15;;;;;;;-5.06;93.07;102539.81;5047467;28;20390;-53
2022/12/18 09:48:32;;;;;;;30.77;17.52;;;;;;;-5.01;93.25;102534.69;5047953;28;20037;-52
2022/12/18 09:51:03;;;;;;;26.92;16.55;;;;;;;-4.97;93.02;102515.75;5044541;28;20048;-49
2022/12/18 09:53:34;;;;;;;29.48;18.50;;;;;;;-4.93;92.71;102517.53;5050807;28;20424;-48
2022/12/18 09:56:01;;;;;;;28.33;19.13;;;;;;;-4.87;93.28;102511.56;5049475;28;20041;-52
2022/12/18 09:58:33;;;;;;;27.60;16.33;;;;;;;-4.82;93.00;102516.81;5019145;28;20040;-50
2022/12/18 10:00:58;;;;;;;28.80;16.92;;;;;;;-4.76;91.90;102529.84;5041865;28;20052;-49
2022/12/18 10:03:24;;;;;;;30.25;19.27;;;;;;;-4.71;92.06;102533.41;5041542;28;20029;-49
2022/12/18 10:06:06;;;;;;;29.80;19.20;;;;;;;-4.67;92.35;102517.03;5043396;28;20035;-50
2022/12/18 10:08:56;;;;;;;28.40;18.83;;;;;;;-4.59;92.77;102519.72;5049259;28;20064;-50
2022/12/18 10:11:34;;;;;;;29.65;17.23;;;;;;;-4.54;92.12;102524.13;5040997;28;20035;-49
2022/12/18 10:14:13;;;;;;;26.95;16.40;;;;;;;-4.50;91.71;102525.03;5038610;28;20512;-51
2022/12/18 10:16:57;;;;;;;32.03;18.25;;;;;;;-4.44;92.46;102529.44;5045022;28;20022;-49
2022/12/18 10:19:49;;;;;;;26.67;17.15;;;;;;;-4.39;91.13;102536.41;5053791;28;20576;-49
2022/12/18 10:22:38;;;;;;;25.17;15.90;;;;;;;-4.34;91.42;102537.34;5046136;28;20033;-49
2022/12/18 10:25:15;;;;;;;27.55;17.27;;;;;;;-4.29;91.82;102521.84;5052591;28;20610;-50
2022/12/18 10:27:40;;;;;;;26.77;16.13;;;;;;;-4.24;91.37;102517.56;5047812;28;20468;-51
2022/12/18 10:30:14;;;;;;;25.27;15.88;;;;;;;-4.20;91.54;102508.97;5049674;28;20029;-52
2022/12/18 10:32:40;;;;;;;26.80;17.17;;;;;;;-4.16;91.18;102499.50;5055065;28;20036;-49
2022/12/18 10:35:17;;;;;;;26.88;16.40;;;;;;;-4.09;90.31;102496.13;5044868;28;20029;-51
2022/12/18 10:38:04;;;;;;;27.73;17.23;;;;;;;-4.06;91.29;102480.59;5051743;28;20490;-50
2022/12/18 10:40:30;;;;;;;27.98;18.63;;;;;;;-3.99;91.10;102478.94;5051030;28;20057;-49
2022/12/18 10:43:15;;;;;;;28.15;16.60;;;;;;;-3.93;90.62;102471.19;5055654;28;20086;-49
2022/12/18 10:45:41;;;;;;;31.60;17.63;;;;;;;-3.91;90.96;102462.56;5052090;28;20551;-50
2022/12/18 10:48:21;;;;;;;30.75;17.52;;;;;;;-3.85;90.77;102473.84;5055792;28;20371;-54
2022/12/18 10:50:49;;;;;;;28.13;17.08;;;;;;;-3.82;90.85;102463.50;5052377;28;20021;-50
2022/12/18 10:53:29;;;;;;;27.33;16.90;;;;;;;-3.75;89.93;102467.88;5042858;28;20032;-49
2022/12/18 10:56:16;;;;;;;24.73;16.42;;;;;;;-3.73;89.86;102460.97;5043129;28;20025;-49
2022/12/18 10:58:41;;;;;;;27.92;16.83;;;;;;;-3.66;90.47;102456.72;5035756;28;20055;-48
2022/12/18 11:01:12;;;;;;;27.67;17.13;;;;;;;-3.62;89.79;102450.69;5038438;28;20034;-50
2022/12/18 11:03:43;;;;;;;27.23;16.50;;;;;;;-3.61;89.75;102435.13;5036280;28;20388;-49
2022/12/18 11:06:14;;;;;;;23.70;15.80;;;;;;;-3.56;89.76;102445.56;5041570;28;20049;-52
2022/12/18 11:08:41;;;;;;;26.50;16.73;;;;;;;-3.52;89.30;102444.72;5047939;28;20029;-50
2022/12/18 11:11:21;;;;;;;28.98;16.48;;;;;;;-3.49;89.42;102442.16;5050196;28;20060;-49
2022/12/18 11:14:12;;;;;;;26.98;16.17;;;;;;;-3.42;89.49;102450.84;5049706;28;20075;-50
2022/12/18 11:16:44;;;;;;;28.05;16.70;;;;;;;-3.39;90.05;102450.88;5050992;28;20037;-53
2022/12/18 11:19:20;;;;;;;25.35;16.13;;;;;;;-3.35;90.45;102442.22;5049495;28;20033;-51
2022/12/18 11:21:46;;;;;;;27.08;16.40;;;;;;;-3.28;89.10;102440.53;5042243;28;20033;-50
2022/12/18 11:24:33;;;;;;;24.98;16.25;;;;;;;-3.24;90.06;102424.13;5052602;28;20028;-50